sensor_id;sensor_type;location;lat;lon;timestamp;pressure;altitude;pressure_sealevel;temperature
12875;BMP180;6505;51.114;13.128;2022-10-15T00:01:46;98865.00;;;20.20
12875;BMP180;6505;51.114;13.128;2022-10-15T00:04:15;98869.00;;;20.20
12875;BMP180;6505;51.114;13.128;2022-10-15T00:06:43;98841.00;;;20.20
12875;BMP180;6505;51.114;13.128;2022-10-15T00:09:11;98862.00;;;20.20
12875;BMP180;6505;51.114;13.128;2022-10-15T00:11:40;98864.00;;;20.20
12875;BMP180;6505;51.114;13.128;2022-10-15T00:14:09;98874.00;;;20.20
12875;BMP180;6505;51.114;13.128;2022-10-15T00:16:37;98868.00;;;20.20
12875;BMP180;6505;51.114;13.128;2022-10-15T00:19:05;98872.00;;;20.20
12875;BMP180;6505;51.114;13.128;2022-10-15T00:21:33;98870.00;;;20.20
12875;BMP180;6505;51.114;13.128;2022-10-15T00:24:02;98867.00;;;20.20
12875;BMP180;6505;51.114;13.128;2022-10-15T00:26:30;98863.00;;;20.20
12875;BMP180;6505;51.114;13.128;2022-10-15T00:29:02;98868.00;;;20.20
12875;BMP180;6505;51.114;13.128;2022-10-15T00:31:31;98837.00;;;20.20
12875;BMP180;6505;51.114;13.128;2022-10-15T00:34:01;98856.00;;;20.20
12875;BMP180;6505;51.114;13.128;2022-10-15T00:36:32;98867.00;;;20.20
12875;BMP180;6505;51.114;13.128;2022-10-15T00:39:02;98853.00;;;20.20
12875;BMP180;6505;51.114;13.128;2022-10-15T00:41:34;98850.00;;;20.20
12875;BMP180;6505;51.114;13.128;2022-10-15T00:44:46;98856.00;;;20.20
12875;BMP180;6505;51.114;13.128;2022-10-15T00:47:18;98843.00;;;20.20
12875;BMP180;6505;51.114;13.128;2022-10-15T00:49:55;98862.00;;;20.00
12875;BMP180;6505;51.114;13.128;2022-10-15T00:52:31;98856.00;;;20.20
12875;BMP180;6505;51.114;13.128;2022-10-15T00:55:07;98850.00;;;20.20
12875;BMP180;6505;51.114;13.128;2022-10-15T00:57:37;98855.00;;;20.20
12875;BMP180;6505;51.114;13.128;2022-10-15T01:00:13;98852.00;;;20.20
12875;BMP180;6505;51.114;13.128;2022-10-15T01:02:43;98842.00;;;20.20
12875;BMP180;6505;51.114;13.128;2022-10-15T01:05:14;98844.00;;;20.20
12875;BMP180;6505;51.114;13.128;2022-10-15T01:07:43;98838.00;;;20.20
12875;BMP180;6505;51.114;13.128;2022-10-15T01:10:14;98843.00;;;20.20
12875;BMP180;6505;51.114;13.128;2022-10-15T01:13:07;98839.00;;;20.10
12875;BMP180;6505;51.114;13.128;2022-10-15T01:15:48;98840.00;;;20.20
12875;BMP180;6505;51.114;13.128;2022-10-15T01:18:21;98838.00;;;20.20
12875;BMP180;6505;51.114;13.128;2022-10-15T01:21:02;98834.00;;;20.20
12875;BMP180;6505;51.114;13.128;2022-10-15T01:24:17;98833.00;;;20.10
12875;BMP180;6505;51.114;13.128;2022-10-15T01:27:22;98836.00;;;20.10
12875;BMP180;6505;51.114;13.128;2022-10-15T01:30:23;98840.00;;;20.00
12875;BMP180;6505;51.114;13.128;2022-10-15T01:33:09;98830.00;;;20.10
12875;BMP180;6505;51.114;13.128;2022-10-15T01:35:48;98814.00;;;20.10
12875;BMP180;6505;51.114;13.128;2022-10-15T01:38:37;98826.00;;;20.10
12875;BMP180;6505;51.114;13.128;2022-10-15T01:41:15;98822.00;;;20.10
12875;BMP180;6505;51.114;13.128;2022-10-15T01:43:54;98819.00;;;20.10
12875;BMP180;6505;51.114;13.128;2022-10-15T01:46:36;98820.00;;;20.10
12875;BMP180;6505;51.114;13.128;2022-10-15T01:49:11;98812.00;;;20.20
12875;BMP180;6505;51.114;13.128;2022-10-15T01:51:43;98821.00;;;20.20
12875;BMP180;6505;51.114;13.128;2022-10-15T01:54:17;98802.00;;;20.10
12875;BMP180;6505;51.114;13.128;2022-10-15T01:56:49;98819.00;;;20.20
12875;BMP180;6505;51.114;13.128;2022-10-15T01:59:24;98822.00;;;20.20
12875;BMP180;6505;51.114;13.128;2022-10-15T02:01:55;98817.00;;;20.20
12875;BMP180;6505;51.114;13.128;2022-10-15T02:04:27;98804.00;;;20.20
12875;BMP180;6505;51.114;13.128;2022-10-15T02:07:02;98821.00;;;20.20
12875;BMP180;6505;51.114;13.128;2022-10-15T02:09:46;98777.00;;;20.20
12875;BMP180;6505;51.114;13.128;2022-10-15T02:12:30;98806.00;;;20.10
12875;BMP180;6505;51.114;13.128;2022-10-15T02:15:10;98805.00;;;20.20
12875;BMP180;6505;51.114;13.128;2022-10-15T02:17:59;98799.00;;;20.20
12875;BMP180;6505;51.114;13.128;2022-10-15T02:20:37;98800.00;;;20.20
12875;BMP180;6505;51.114;13.128;2022-10-15T02:23:15;98800.00;;;20.20
12875;BMP180;6505;51.114;13.128;2022-10-15T02:25:46;98774.00;;;20.10
12875;BMP180;6505;51.114;13.128;2022-10-15T02:28:17;98782.00;;;20.20
12875;BMP180;6505;51.114;13.128;2022-10-15T02:30:49;98785.00;;;20.20
12875;BMP180;6505;51.114;13.128;2022-10-15T02:33:21;98740.00;;;20.20
12875;BMP180;6505;51.114;13.128;2022-10-15T02:35:51;98776.00;;;20.20
12875;BMP180;6505;51.114;13.128;2022-10-15T02:38:23;98764.00;;;20.20
12875;BMP180;6505;51.114;13.128;2022-10-15T02:40:53;98773.00;;;20.20
12875;BMP180;6505;51.114;13.128;2022-10-15T02:43:22;98725.00;;;20.20
12875;BMP180;6505;51.114;13.128;2022-10-15T02:45:50;98761.00;;;20.20
12875;BMP180;6505;51.114;13.128;2022-10-15T02:48:21;98766.00;;;20.20
12875;BMP180;6505;51.114;13.128;2022-10-15T02:50:49;98753.00;;;20.10
12875;BMP180;6505;51.114;13.128;2022-10-15T02:53:17;98767.00;;;20.20
12875;BMP180;6505;51.114;13.128;2022-10-15T02:55:45;98758.00;;;20.20
12875;BMP180;6505;51.114;13.128;2022-10-15T02:58:14;98756.00;;;20.20
12875;BMP180;6505;51.114;13.128;2022-10-15T03:00:43;98757.00;;;20.20
12875;BMP180;6505;51.114;13.128;2022-10-15T03:03:12;98746.00;;;20.20
12875;BMP180;6505;51.114;13.128;2022-10-15T03:05:42;98722.00;;;20.20
12875;BMP180;6505;51.114;13.128;2022-10-15T03:08:12;98742.00;;;20.20
12875;BMP180;6505;51.114;13.128;2022-10-15T03:10:40;98766.00;;;20.20
12875;BMP180;6505;51.114;13.128;2022-10-15T03:13:08;98764.00;;;20.30
12875;BMP180;6505;51.114;13.128;2022-10-15T03:15:44;98754.00;;;20.20
12875;BMP180;6505;51.114;13.128;2022-10-15T03:18:14;98761.00;;;20.20
12875;BMP180;6505;51.114;13.128;2022-10-15T03:20:44;98759.00;;;20.20
12875;BMP180;6505;51.114;13.128;2022-10-15T03:23:13;98763.00;;;20.20
12875;BMP180;6505;51.114;13.128;2022-10-15T03:25:42;98739.00;;;20.30
12875;BMP180;6505;51.114;13.128;2022-10-15T03:28:21;98756.00;;;20.20
12875;BMP180;6505;51.114;13.128;2022-10-15T03:30:50;98757.00;;;20.20
12875;BMP180;6505;51.114;13.128;2022-10-15T03:33:18;98743.00;;;20.20
12875;BMP180;6505;51.114;13.128;2022-10-15T03:35:52;98753.00;;;20.20
12875;BMP180;6505;51.114;13.128;2022-10-15T03:38:21;98751.00;;;20.20
12875;BMP180;6505;51.114;13.128;2022-10-15T03:40:51;98755.00;;;20.20
12875;BMP180;6505;51.114;13.128;2022-10-15T03:43:28;98744.00;;;20.30
12875;BMP180;6505;51.114;13.128;2022-10-15T03:46:01;98735.00;;;20.20
12875;BMP180;6505;51.114;13.128;2022-10-15T03:48:30;98743.00;;;20.20
12875;BMP180;6505;51.114;13.128;2022-10-15T03:50:59;98744.00;;;20.20
12875;BMP180;6505;51.114;13.128;2022-10-15T03:53:28;98739.00;;;20.20
12875;BMP180;6505;51.114;13.128;2022-10-15T03:56:02;98745.00;;;20.20
12875;BMP180;6505;51.114;13.128;2022-10-15T03:58:31;98725.00;;;20.20
12875;BMP180;6505;51.114;13.128;2022-10-15T04:01:07;98750.00;;;20.20
12875;BMP180;6505;51.114;13.128;2022-10-15T04:03:37;98757.00;;;20.20
12875;BMP180;6505;51.114;13.128;2022-10-15T04:06:08;98752.00;;;20.20
12875;BMP180;6505;51.114;13.128;2022-10-15T04:08:37;98741.00;;;20.20
12875;BMP180;6505;51.114;13.128;2022-10-15T04:11:19;98741.00;;;20.20
12875;BMP180;6505;51.114;13.128;2022-10-15T04:13:57;98744.00;;;20.20
12875;BMP180;6505;51.114;13.128;2022-10-15T04:16:25;98743.00;;;20.20
12875;BMP180;6505;51.114;13.128;2022-10-15T04:18:54;98727.00;;;20.20
12875;BMP180;6505;51.114;13.128;2022-10-15T04:21:25;98734.00;;;20.20
12875;BMP180;6505;51.114;13.128;2022-10-15T04:23:58;98746.00;;;20.20
12875;BMP180;6505;51.114;13.128;2022-10-15T04:26:33;98741.00;;;20.20
12875;BMP180;6505;51.114;13.128;2022-10-15T04:29:02;98732.00;;;20.20
12875;BMP180;6505;51.114;13.128;2022-10-15T04:31:30;98732.00;;;20.20
12875;BMP180;6505;51.114;13.128;2022-10-15T04:34:00;98735.00;;;20.20
12875;BMP180;6505;51.114;13.128;2022-10-15T04:36:30;98728.00;;;20.20
12875;BMP180;6505;51.114;13.128;2022-10-15T04:39:04;98735.00;;;20.20
12875;BMP180;6505;51.114;13.128;2022-10-15T04:41:40;98731.00;;;20.20
12875;BMP180;6505;51.114;13.128;2022-10-15T04:44:14;98729.00;;;20.20
12875;BMP180;6505;51.114;13.128;2022-10-15T04:46:48;98732.00;;;20.20
12875;BMP180;6505;51.114;13.128;2022-10-15T04:49:36;98730.00;;;20.20
12875;BMP180;6505;51.114;13.128;2022-10-15T04:52:15;98734.00;;;20.20
12875;BMP180;6505;51.114;13.128;2022-10-15T04:54:56;98735.00;;;20.20
12875;BMP180;6505;51.114;13.128;2022-10-15T04:57:24;98711.00;;;20.20
12875;BMP180;6505;51.114;13.128;2022-10-15T04:59:54;98733.00;;;20.20
12875;BMP180;6505;51.114;13.128;2022-10-15T05:02:32;98738.00;;;20.20
12875;BMP180;6505;51.114;13.128;2022-10-15T05:05:13;98736.00;;;20.20
12875;BMP180;6505;51.114;13.128;2022-10-15T05:07:58;98734.00;;;20.20
12875;BMP180;6505;51.114;13.128;2022-10-15T05:10:27;98744.00;;;20.20
12875;BMP180;6505;51.114;13.128;2022-10-15T05:13:00;98720.00;;;20.20
12875;BMP180;6505;51.114;13.128;2022-10-15T05:15:32;98727.00;;;20.20
12875;BMP180;6505;51.114;13.128;2022-10-15T05:18:04;98717.00;;;20.20
12875;BMP180;6505;51.114;13.128;2022-10-15T05:20:42;98736.00;;;20.20
12875;BMP180;6505;51.114;13.128;2022-10-15T05:23:15;98741.00;;;20.10
12875;BMP180;6505;51.114;13.128;2022-10-15T05:25:52;98749.00;;;20.20
12875;BMP180;6505;51.114;13.128;2022-10-15T05:28:24;98739.00;;;20.20
12875;BMP180;6505;51.114;13.128;2022-10-15T05:30:52;98741.00;;;20.20
12875;BMP180;6505;51.114;13.128;2022-10-15T05:33:21;98731.00;;;20.20
12875;BMP180;6505;51.114;13.128;2022-10-15T05:35:49;98713.00;;;20.20
12875;BMP180;6505;51.114;13.128;2022-10-15T05:38:21;98732.00;;;20.20
12875;BMP180;6505;51.114;13.128;2022-10-15T05:40:49;98740.00;;;20.20
12875;BMP180;6505;51.114;13.128;2022-10-15T05:43:22;98704.00;;;20.10
12875;BMP180;6505;51.114;13.128;2022-10-15T05:45:53;98710.00;;;20.20
12875;BMP180;6505;51.114;13.128;2022-10-15T05:48:22;98714.00;;;20.20
12875;BMP180;6505;51.114;13.128;2022-10-15T05:50:51;98733.00;;;20.20
12875;BMP180;6505;51.114;13.128;2022-10-15T05:53:25;98735.00;;;20.20
12875;BMP180;6505;51.114;13.128;2022-10-15T05:55:59;98725.00;;;20.20
12875;BMP180;6505;51.114;13.128;2022-10-15T05:58:32;98732.00;;;20.20
12875;BMP180;6505;51.114;13.128;2022-10-15T06:01:06;98735.00;;;20.20
12875;BMP180;6505;51.114;13.128;2022-10-15T06:03:38;98734.00;;;20.20
12875;BMP180;6505;51.114;13.128;2022-10-15T06:06:14;98730.00;;;20.20
12875;BMP180;6505;51.114;13.128;2022-10-15T06:08:44;98703.00;;;20.20
12875;BMP180;6505;51.114;13.128;2022-10-15T06:11:12;98745.00;;;20.30
12875;BMP180;6505;51.114;13.128;2022-10-15T06:13:42;98746.00;;;20.20
12875;BMP180;6505;51.114;13.128;2022-10-15T06:16:13;98737.00;;;20.20
12875;BMP180;6505;51.114;13.128;2022-10-15T06:18:50;98735.00;;;20.20
12875;BMP180;6505;51.114;13.128;2022-10-15T06:21:18;98730.00;;;20.20
12875;BMP180;6505;51.114;13.128;2022-10-15T06:23:48;98743.00;;;20.20
12875;BMP180;6505;51.114;13.128;2022-10-15T06:26:16;98766.00;;;20.20
12875;BMP180;6505;51.114;13.128;2022-10-15T06:28:47;98756.00;;;20.20
12875;BMP180;6505;51.114;13.128;2022-10-15T06:31:15;98770.00;;;20.30
12875;BMP180;6505;51.114;13.128;2022-10-15T06:33:43;98774.00;;;20.30
12875;BMP180;6505;51.114;13.128;2022-10-15T06:36:11;98774.00;;;20.30
12875;BMP180;6505;51.114;13.128;2022-10-15T06:38:43;98762.00;;;20.20
12875;BMP180;6505;51.114;13.128;2022-10-15T06:41:16;98777.00;;;20.20
12875;BMP180;6505;51.114;13.128;2022-10-15T06:43:47;98779.00;;;20.30
12875;BMP180;6505;51.114;13.128;2022-10-15T06:46:16;98775.00;;;20.30
12875;BMP180;6505;51.114;13.128;2022-10-15T06:48:44;98777.00;;;20.30
12875;BMP180;6505;51.114;13.128;2022-10-15T06:51:12;98774.00;;;20.30
12875;BMP180;6505;51.114;13.128;2022-10-15T06:53:48;98777.00;;;20.30
12875;BMP180;6505;51.114;13.128;2022-10-15T06:56:18;98777.00;;;20.30
12875;BMP180;6505;51.114;13.128;2022-10-15T06:58:46;98776.00;;;20.30
12875;BMP180;6505;51.114;13.128;2022-10-15T07:01:14;98781.00;;;20.30
12875;BMP180;6505;51.114;13.128;2022-10-15T07:03:42;98774.00;;;20.30
12875;BMP180;6505;51.114;13.128;2022-10-15T07:06:10;98773.00;;;20.30
12875;BMP180;6505;51.114;13.128;2022-10-15T07:08:39;98772.00;;;20.30
12875;BMP180;6505;51.114;13.128;2022-10-15T07:11:08;98774.00;;;20.30
12875;BMP180;6505;51.114;13.128;2022-10-15T07:13:38;98778.00;;;20.30
12875;BMP180;6505;51.114;13.128;2022-10-15T07:16:08;98783.00;;;20.30
12875;BMP180;6505;51.114;13.128;2022-10-15T07:18:37;98776.00;;;20.30
12875;BMP180;6505;51.114;13.128;2022-10-15T07:21:09;98783.00;;;20.30
12875;BMP180;6505;51.114;13.128;2022-10-15T07:23:42;98782.00;;;20.40
12875;BMP180;6505;51.114;13.128;2022-10-15T07:26:10;98775.00;;;20.40
12875;BMP180;6505;51.114;13.128;2022-10-15T07:28:40;98779.00;;;20.40
12875;BMP180;6505;51.114;13.128;2022-10-15T07:31:08;98785.00;;;20.40
12875;BMP180;6505;51.114;13.128;2022-10-15T07:33:36;98794.00;;;20.40
12875;BMP180;6505;51.114;13.128;2022-10-15T07:36:09;98788.00;;;20.40
12875;BMP180;6505;51.114;13.128;2022-10-15T07:38:39;98807.00;;;20.40
12875;BMP180;6505;51.114;13.128;2022-10-15T07:41:09;98814.00;;;20.40
12875;BMP180;6505;51.114;13.128;2022-10-15T07:43:43;98810.00;;;20.40
12875;BMP180;6505;51.114;13.128;2022-10-15T07:46:11;98815.00;;;20.40
12875;BMP180;6505;51.114;13.128;2022-10-15T07:48:39;98817.00;;;20.40
12875;BMP180;6505;51.114;13.128;2022-10-15T07:51:09;98823.00;;;20.40
12875;BMP180;6505;51.114;13.128;2022-10-15T07:53:37;98816.00;;;20.50
12875;BMP180;6505;51.114;13.128;2022-10-15T07:56:09;98815.00;;;20.40
12875;BMP180;6505;51.114;13.128;2022-10-15T07:58:38;98811.00;;;20.50
12875;BMP180;6505;51.114;13.128;2022-10-15T08:01:09;98820.00;;;20.50
12875;BMP180;6505;51.114;13.128;2022-10-15T08:03:37;98828.00;;;20.50
12875;BMP180;6505;51.114;13.128;2022-10-15T08:06:07;98823.00;;;20.50
12875;BMP180;6505;51.114;13.128;2022-10-15T08:08:36;98817.00;;;20.40
12875;BMP180;6505;51.114;13.128;2022-10-15T08:11:05;98816.00;;;20.40
12875;BMP180;6505;51.114;13.128;2022-10-15T08:13:33;98819.00;;;20.50
12875;BMP180;6505;51.114;13.128;2022-10-15T08:16:02;98813.00;;;20.40
12875;BMP180;6505;51.114;13.128;2022-10-15T08:18:31;98804.00;;;20.50
12875;BMP180;6505;51.114;13.128;2022-10-15T08:21:00;98815.00;;;20.50
12875;BMP180;6505;51.114;13.128;2022-10-15T08:23:29;98826.00;;;20.60
12875;BMP180;6505;51.114;13.128;2022-10-15T08:25:57;98830.00;;;20.60
12875;BMP180;6505;51.114;13.128;2022-10-15T08:28:26;98838.00;;;20.60
12875;BMP180;6505;51.114;13.128;2022-10-15T08:30:56;98834.00;;;20.60
12875;BMP180;6505;51.114;13.128;2022-10-15T08:33:34;98833.00;;;20.60
12875;BMP180;6505;51.114;13.128;2022-10-15T08:36:04;98830.00;;;20.60
12875;BMP180;6505;51.114;13.128;2022-10-15T08:38:33;98822.00;;;20.60
12875;BMP180;6505;51.114;13.128;2022-10-15T08:41:04;98806.00;;;20.60
12875;BMP180;6505;51.114;13.128;2022-10-15T08:43:41;98818.00;;;20.60
12875;BMP180;6505;51.114;13.128;2022-10-15T08:46:19;98831.00;;;20.60
12875;BMP180;6505;51.114;13.128;2022-10-15T08:48:54;98838.00;;;20.60
12875;BMP180;6505;51.114;13.128;2022-10-15T08:51:29;98850.00;;;20.60
12875;BMP180;6505;51.114;13.128;2022-10-15T08:54:02;98845.00;;;20.60
12875;BMP180;6505;51.114;13.128;2022-10-15T08:56:36;98849.00;;;20.60
12875;BMP180;6505;51.114;13.128;2022-10-15T08:59:21;98854.00;;;20.70
12875;BMP180;6505;51.114;13.128;2022-10-15T09:01:58;98857.00;;;20.70
12875;BMP180;6505;51.114;13.128;2022-10-15T09:04:41;98860.00;;;20.70
12875;BMP180;6505;51.114;13.128;2022-10-15T09:07:22;98858.00;;;20.60
12875;BMP180;6505;51.114;13.128;2022-10-15T09:10:00;98852.00;;;20.70
12875;BMP180;6505;51.114;13.128;2022-10-15T09:12:47;98860.00;;;20.70
12875;BMP180;6505;51.114;13.128;2022-10-15T09:15:22;98859.00;;;20.80
12875;BMP180;6505;51.114;13.128;2022-10-15T09:17:54;98863.00;;;20.80
12875;BMP180;6505;51.114;13.128;2022-10-15T09:20:31;98863.00;;;20.80
12875;BMP180;6505;51.114;13.128;2022-10-15T09:23:00;98867.00;;;20.80
12875;BMP180;6505;51.114;13.128;2022-10-15T09:25:34;98871.00;;;20.80
12875;BMP180;6505;51.114;13.128;2022-10-15T09:28:09;98874.00;;;20.80
12875;BMP180;6505;51.114;13.128;2022-10-15T09:30:45;98869.00;;;20.80
12875;BMP180;6505;51.114;13.128;2022-10-15T09:33:28;98868.00;;;20.80
12875;BMP180;6505;51.114;13.128;2022-10-15T09:36:11;98882.00;;;20.80
12875;BMP180;6505;51.114;13.128;2022-10-15T09:38:53;98883.00;;;20.80
12875;BMP180;6505;51.114;13.128;2022-10-15T09:41:32;98884.00;;;20.90
12875;BMP180;6505;51.114;13.128;2022-10-15T09:44:04;98877.00;;;20.90
12875;BMP180;6505;51.114;13.128;2022-10-15T09:46:43;98896.00;;;20.90
12875;BMP180;6505;51.114;13.128;2022-10-15T09:49:15;98888.00;;;20.90
12875;BMP180;6505;51.114;13.128;2022-10-15T09:52:01;98893.00;;;20.90
12875;BMP180;6505;51.114;13.128;2022-10-15T09:54:42;98890.00;;;20.90
12875;BMP180;6505;51.114;13.128;2022-10-15T09:57:16;98888.00;;;21.00
12875;BMP180;6505;51.114;13.128;2022-10-15T09:59:53;98899.00;;;20.90
12875;BMP180;6505;51.114;13.128;2022-10-15T10:02:24;98885.00;;;21.00
12875;BMP180;6505;51.114;13.128;2022-10-15T10:04:54;98890.00;;;21.00
12875;BMP180;6505;51.114;13.128;2022-10-15T10:07:35;98892.00;;;21.00
12875;BMP180;6505;51.114;13.128;2022-10-15T10:10:19;98897.00;;;21.00
12875;BMP180;6505;51.114;13.128;2022-10-15T10:12:50;98898.00;;;21.00
12875;BMP180;6505;51.114;13.128;2022-10-15T10:15:33;98902.00;;;21.00
12875;BMP180;6505;51.114;13.128;2022-10-15T10:18:04;98914.00;;;21.10
12875;BMP180;6505;51.114;13.128;2022-10-15T10:20:34;98907.00;;;21.10
12875;BMP180;6505;51.114;13.128;2022-10-15T10:23:22;98913.00;;;21.10
12875;BMP180;6505;51.114;13.128;2022-10-15T10:25:56;98902.00;;;21.10
12875;BMP180;6505;51.114;13.128;2022-10-15T10:28:31;98876.00;;;21.10
12875;BMP180;6505;51.114;13.128;2022-10-15T10:31:04;98893.00;;;21.00
12875;BMP180;6505;51.114;13.128;2022-10-15T10:33:42;98902.00;;;21.10
12875;BMP180;6505;51.114;13.128;2022-10-15T10:36:24;98905.00;;;21.20
12875;BMP180;6505;51.114;13.128;2022-10-15T10:39:02;98897.00;;;21.20
12875;BMP180;6505;51.114;13.128;2022-10-15T10:41:52;98896.00;;;21.20
12875;BMP180;6505;51.114;13.128;2022-10-15T10:44:28;98903.00;;;21.20
12875;BMP180;6505;51.114;13.128;2022-10-15T10:47:20;98868.00;;;21.20
12875;BMP180;6505;51.114;13.128;2022-10-15T10:49:55;98908.00;;;21.20
12875;BMP180;6505;51.114;13.128;2022-10-15T10:52:28;98901.00;;;21.30
12875;BMP180;6505;51.114;13.128;2022-10-15T10:55:04;98915.00;;;21.30
12875;BMP180;6505;51.114;13.128;2022-10-15T10:57:44;98916.00;;;21.30
12875;BMP180;6505;51.114;13.128;2022-10-15T11:00:19;98909.00;;;21.20
12875;BMP180;6505;51.114;13.128;2022-10-15T11:02:50;98901.00;;;21.30
12875;BMP180;6505;51.114;13.128;2022-10-15T11:05:26;98897.00;;;21.30
12875;BMP180;6505;51.114;13.128;2022-10-15T11:08:07;98895.00;;;21.40
12875;BMP180;6505;51.114;13.128;2022-10-15T11:10:45;98910.00;;;21.30
12875;BMP180;6505;51.114;13.128;2022-10-15T11:13:37;98903.00;;;21.40
12875;BMP180;6505;51.114;13.128;2022-10-15T11:16:18;98904.00;;;21.40
12875;BMP180;6505;51.114;13.128;2022-10-15T11:19:02;98902.00;;;21.40
12875;BMP180;6505;51.114;13.128;2022-10-15T11:22:04;98904.00;;;21.40
12875;BMP180;6505;51.114;13.128;2022-10-15T11:24:40;98909.00;;;21.50
12875;BMP180;6505;51.114;13.128;2022-10-15T11:27:42;98901.00;;;21.40
12875;BMP180;6505;51.114;13.128;2022-10-15T11:30:33;98908.00;;;21.50
12875;BMP180;6505;51.114;13.128;2022-10-15T11:33:23;98901.00;;;21.50
12875;BMP180;6505;51.114;13.128;2022-10-15T11:36:12;98918.00;;;21.50
12875;BMP180;6505;51.114;13.128;2022-10-15T11:38:56;98914.00;;;21.50
12875;BMP180;6505;51.114;13.128;2022-10-15T11:41:38;98911.00;;;21.60
12875;BMP180;6505;51.114;13.128;2022-10-15T11:44:31;98915.00;;;21.50
12875;BMP180;6505;51.114;13.128;2022-10-15T11:47:23;98910.00;;;21.60
12875;BMP180;6505;51.114;13.128;2022-10-15T11:50:12;98903.00;;;21.60
12875;BMP180;6505;51.114;13.128;2022-10-15T11:53:06;98902.00;;;21.60
12875;BMP180;6505;51.114;13.128;2022-10-15T11:55:45;98912.00;;;21.60
12875;BMP180;6505;51.114;13.128;2022-10-15T11:58:27;98922.00;;;21.70
12875;BMP180;6505;51.114;13.128;2022-10-15T12:01:03;98908.00;;;21.70
12875;BMP180;6505;51.114;13.128;2022-10-15T12:03:49;98914.00;;;21.70
12875;BMP180;6505;51.114;13.128;2022-10-15T12:06:23;98912.00;;;21.70
12875;BMP180;6505;51.114;13.128;2022-10-15T12:08:52;98917.00;;;21.80
12875;BMP180;6505;51.114;13.128;2022-10-15T12:11:36;98905.00;;;21.70
12875;BMP180;6505;51.114;13.128;2022-10-15T12:14:22;98912.00;;;21.70
12875;BMP180;6505;51.114;13.128;2022-10-15T12:17:03;98910.00;;;21.80
12875;BMP180;6505;51.114;13.128;2022-10-15T12:19:39;98874.00;;;21.80
12875;BMP180;6505;51.114;13.128;2022-10-15T12:22:10;98901.00;;;21.90
12875;BMP180;6505;51.114;13.128;2022-10-15T12:24:54;98906.00;;;21.80
12875;BMP180;6505;51.114;13.128;2022-10-15T12:27:32;98909.00;;;21.80
12875;BMP180;6505;51.114;13.128;2022-10-15T12:30:25;98910.00;;;21.80
12875;BMP180;6505;51.114;13.128;2022-10-15T12:32:55;98908.00;;;21.90
12875;BMP180;6505;51.114;13.128;2022-10-15T12:35:35;98911.00;;;21.90
12875;BMP180;6505;51.114;13.128;2022-10-15T12:38:26;98883.00;;;21.90
12875;BMP180;6505;51.114;13.128;2022-10-15T12:41:00;98906.00;;;21.90
12875;BMP180;6505;51.114;13.128;2022-10-15T12:43:33;98906.00;;;21.90
12875;BMP180;6505;51.114;13.128;2022-10-15T12:46:05;98901.00;;;22.00
12875;BMP180;6505;51.114;13.128;2022-10-15T12:48:40;98906.00;;;22.00
12875;BMP180;6505;51.114;13.128;2022-10-15T12:51:31;98909.00;;;22.00
12875;BMP180;6505;51.114;13.128;2022-10-15T12:54:01;98907.00;;;22.00
12875;BMP180;6505;51.114;13.128;2022-10-15T12:56:37;98909.00;;;22.00
12875;BMP180;6505;51.114;13.128;2022-10-15T12:59:28;98886.00;;;22.00
12875;BMP180;6505;51.114;13.128;2022-10-15T13:02:01;98887.00;;;22.10
12875;BMP180;6505;51.114;13.128;2022-10-15T13:04:38;98894.00;;;22.00
12875;BMP180;6505;51.114;13.128;2022-10-15T13:07:13;98881.00;;;22.10
12875;BMP180;6505;51.114;13.128;2022-10-15T13:09:41;98878.00;;;22.10
12875;BMP180;6505;51.114;13.128;2022-10-15T13:12:22;98876.00;;;22.10
12875;BMP180;6505;51.114;13.128;2022-10-15T13:14:56;98889.00;;;22.10
12875;BMP180;6505;51.114;13.128;2022-10-15T13:17:29;98879.00;;;22.20
12875;BMP180;6505;51.114;13.128;2022-10-15T13:20:04;98885.00;;;22.10
12875;BMP180;6505;51.114;13.128;2022-10-15T13:22:35;98878.00;;;22.20
12875;BMP180;6505;51.114;13.128;2022-10-15T13:25:14;98895.00;;;22.10
12875;BMP180;6505;51.114;13.128;2022-10-15T13:27:42;98884.00;;;22.20
12875;BMP180;6505;51.114;13.128;2022-10-15T13:30:14;98882.00;;;22.20
12875;BMP180;6505;51.114;13.128;2022-10-15T13:32:47;98890.00;;;22.20
12875;BMP180;6505;51.114;13.128;2022-10-15T13:35:22;98903.00;;;22.20
12875;BMP180;6505;51.114;13.128;2022-10-15T13:37:52;98894.00;;;22.10
12875;BMP180;6505;51.114;13.128;2022-10-15T13:40:23;98897.00;;;22.20
12875;BMP180;6505;51.114;13.128;2022-10-15T13:42:59;98897.00;;;22.20
12875;BMP180;6505;51.114;13.128;2022-10-15T13:45:28;98905.00;;;22.30
12875;BMP180;6505;51.114;13.128;2022-10-15T13:47:57;98914.00;;;22.30
12875;BMP180;6505;51.114;13.128;2022-10-15T13:50:28;98912.00;;;22.20
12875;BMP180;6505;51.114;13.128;2022-10-15T13:52:59;98907.00;;;22.20
12875;BMP180;6505;51.114;13.128;2022-10-15T13:55:32;98882.00;;;22.20
12875;BMP180;6505;51.114;13.128;2022-10-15T13:58:18;98891.00;;;22.20
12875;BMP180;6505;51.114;13.128;2022-10-15T14:00:56;98893.00;;;22.20
12875;BMP180;6505;51.114;13.128;2022-10-15T14:03:27;98889.00;;;22.30
12875;BMP180;6505;51.114;13.128;2022-10-15T14:06:10;98900.00;;;22.20
12875;BMP180;6505;51.114;13.128;2022-10-15T14:08:42;98912.00;;;22.30
12875;BMP180;6505;51.114;13.128;2022-10-15T14:11:11;98912.00;;;22.30
12875;BMP180;6505;51.114;13.128;2022-10-15T14:13:44;98904.00;;;22.30
12875;BMP180;6505;51.114;13.128;2022-10-15T14:16:18;98915.00;;;22.30
12875;BMP180;6505;51.114;13.128;2022-10-15T14:18:50;98910.00;;;22.30
12875;BMP180;6505;51.114;13.128;2022-10-15T14:21:23;98908.00;;;22.30
12875;BMP180;6505;51.114;13.128;2022-10-15T14:24:03;98911.00;;;22.30
12875;BMP180;6505;51.114;13.128;2022-10-15T14:26:33;98913.00;;;22.20
12875;BMP180;6505;51.114;13.128;2022-10-15T14:29:02;98914.00;;;22.30
12875;BMP180;6505;51.114;13.128;2022-10-15T14:31:38;98915.00;;;22.30
12875;BMP180;6505;51.114;13.128;2022-10-15T14:34:38;98908.00;;;22.30
12875;BMP180;6505;51.114;13.128;2022-10-15T14:37:37;98915.00;;;22.20
12875;BMP180;6505;51.114;13.128;2022-10-15T14:40:17;98912.00;;;22.30
12875;BMP180;6505;51.114;13.128;2022-10-15T14:43:00;98903.00;;;22.30
12875;BMP180;6505;51.114;13.128;2022-10-15T14:45:31;98912.00;;;22.30
12875;BMP180;6505;51.114;13.128;2022-10-15T14:48:13;98914.00;;;22.30
12875;BMP180;6505;51.114;13.128;2022-10-15T14:50:58;98924.00;;;22.30
12875;BMP180;6505;51.114;13.128;2022-10-15T14:53:31;98914.00;;;22.30